createdAt,value
2023-03-29T00:00:14.542Z,6.39
2023-03-29T00:02:48.586Z,6.42
2023-03-29T00:05:18.956Z,6.35
2023-03-29T00:07:46.641Z,6.34
2023-03-29T00:10:14.006Z,6.22
2023-03-29T00:12:42.031Z,6.21
2023-03-29T00:15:10.066Z,6.17
2023-03-29T00:17:37.823Z,6.13
2023-03-29T00:20:12.516Z,6.10
2023-03-29T00:22:44.678Z,6.09
2023-03-29T00:25:13.479Z,6.08
2023-03-29T00:27:41.305Z,6.03
2023-03-29T00:30:10.330Z,6.06
2023-03-29T00:32:38.778Z,6.09
2023-03-29T00:35:06.465Z,6.12
2023-03-29T00:37:34.093Z,6.08
2023-03-29T00:40:01.729Z,6.03
2023-03-29T00:42:30.363Z,6.06
2023-03-29T00:45:00.645Z,6.03
2023-03-29T00:47:47.197Z,5.99
2023-03-29T00:50:29.779Z,5.98
2023-03-29T00:53:27.537Z,6.00
2023-03-29T00:56:06.473Z,5.99
2023-03-29T00:58:49.697Z,5.98
2023-03-29T01:01:46.139Z,5.97
2023-03-29T01:04:47.637Z,5.95
2023-03-29T01:07:42.210Z,5.93
2023-03-29T01:10:16.266Z,5.92
2023-03-29T01:12:54.446Z,5.90
2023-03-29T01:15:26.547Z,5.91
2023-03-29T01:17:55.803Z,5.87
2023-03-29T01:20:43.455Z,5.85
2023-03-29T01:23:38.519Z,5.86
2023-03-29T01:26:21.903Z,5.87
2023-03-29T01:29:08.759Z,5.87
2023-03-29T01:31:44.946Z,5.83
2023-03-29T01:34:32.046Z,5.81
2023-03-29T01:37:24.699Z,5.82
2023-03-29T01:39:53.043Z,5.81
2023-03-29T01:42:28.454Z,5.79
2023-03-29T01:45:17.198Z,5.82
2023-03-29T01:48:27.045Z,5.80
2023-03-29T01:51:23.092Z,5.83
2023-03-29T01:54:13.359Z,5.82
2023-03-29T01:56:44.143Z,5.83
2023-03-29T01:59:16.159Z,5.82
2023-03-29T02:01:49.902Z,5.79
2023-03-29T02:04:31.754Z,5.82
2023-03-29T02:07:02.283Z,5.79
2023-03-29T02:09:30.764Z,5.77
2023-03-29T02:12:01.046Z,5.78
2023-03-29T02:14:30.432Z,5.73
2023-03-29T02:17:09.223Z,5.69
2023-03-29T02:19:36.701Z,5.73
2023-03-29T02:22:10.370Z,5.74
2023-03-29T02:24:39.368Z,5.64
2023-03-29T02:27:06.750Z,5.60
2023-03-29T02:29:34.115Z,5.52
2023-03-29T02:32:15.942Z,5.55
2023-03-29T02:34:53.396Z,5.44
2023-03-29T02:37:24.404Z,5.35
2023-03-29T02:39:52.542Z,5.27
2023-03-29T02:42:20.623Z,5.20
2023-03-29T02:44:53.066Z,5.17
2023-03-29T02:47:35.723Z,5.18
2023-03-29T02:50:03.330Z,5.18
2023-03-29T02:52:39.337Z,5.13
2023-03-29T02:55:15.029Z,5.28
2023-03-29T02:57:43.985Z,4.99
2023-03-29T03:00:14.654Z,4.96
2023-03-29T03:02:42.920Z,4.98
2023-03-29T03:05:10.458Z,5.03
2023-03-29T03:07:40.590Z,5.01
2023-03-29T03:10:10.333Z,5.06
2023-03-29T03:12:37.942Z,4.92
2023-03-29T03:15:06.609Z,4.85
2023-03-29T03:17:34.013Z,4.71
2023-03-29T03:20:01.388Z,4.65
2023-03-29T03:22:28.695Z,4.58
2023-03-29T03:24:56.122Z,4.65
2023-03-29T03:27:23.449Z,4.58
2023-03-29T03:29:50.761Z,4.71
2023-03-29T03:32:18.561Z,4.68
2023-03-29T03:34:45.898Z,4.66
2023-03-29T03:37:13.260Z,4.72
2023-03-29T03:39:40.662Z,4.71
2023-03-29T03:42:08.537Z,4.69
2023-03-29T03:44:36.554Z,4.67
2023-03-29T03:47:05.773Z,4.52
2023-03-29T03:49:33.164Z,4.47
2023-03-29T03:52:00.459Z,4.31
2023-03-29T03:54:28.078Z,4.08
2023-03-29T03:56:55.487Z,4.29
2023-03-29T03:59:22.941Z,4.29
2023-03-29T04:01:50.590Z,4.28
2023-03-29T04:04:21.716Z,4.24
2023-03-29T04:06:50.589Z,4.23
2023-03-29T04:09:18.177Z,4.26
2023-03-29T04:11:45.564Z,4.22
2023-03-29T04:14:12.908Z,4.15
2023-03-29T04:16:40.336Z,4.09
2023-03-29T04:19:07.654Z,4.09
2023-03-29T04:21:35.086Z,4.04
2023-03-29T04:24:02.396Z,3.99
2023-03-29T04:26:29.804Z,3.95
2023-03-29T04:29:29.486Z,3.90
2023-03-29T04:31:56.852Z,3.88
2023-03-29T04:34:24.262Z,3.82
2023-03-29T04:36:51.770Z,3.75
2023-03-29T04:39:19.327Z,3.70
2023-03-29T04:41:55.957Z,3.60
2023-03-29T04:44:23.276Z,3.52
2023-03-29T04:46:50.767Z,3.53
2023-03-29T04:49:18.282Z,3.46
2023-03-29T04:51:45.858Z,3.45
2023-03-29T04:54:13.328Z,3.37
2023-03-29T04:56:40.785Z,3.32
2023-03-29T04:59:10.583Z,3.26
2023-03-29T05:01:38.815Z,3.17
2023-03-29T05:04:14.081Z,3.16
2023-03-29T05:06:42.051Z,3.09
2023-03-29T05:09:12.909Z,3.13
2023-03-29T05:11:40.370Z,3.23
2023-03-29T05:14:09.370Z,3.27
2023-03-29T05:16:52.545Z,3.31
2023-03-29T05:19:21.899Z,3.40
2023-03-29T05:21:50.999Z,3.31
2023-03-29T05:24:18.478Z,3.32
2023-03-29T05:26:47.696Z,3.33
2023-03-29T05:29:15.394Z,3.26
2023-03-29T05:31:43.086Z,3.21
2023-03-29T05:34:10.904Z,3.25
2023-03-29T05:36:39.176Z,3.24
2023-03-29T05:39:06.943Z,3.25
2023-03-29T05:41:34.672Z,3.28
2023-03-29T05:44:02.616Z,3.29
2023-03-29T05:46:30.176Z,3.32
2023-03-29T05:48:57.706Z,3.33
2023-03-29T05:51:25.340Z,3.25
2023-03-29T05:53:52.774Z,3.27
2023-03-29T05:56:20.713Z,3.35
2023-03-29T05:58:49.393Z,3.36
2023-03-29T06:01:20.045Z,3.39
2023-03-29T06:03:47.704Z,3.46
2023-03-29T06:06:16.746Z,3.53
2023-03-29T06:08:45.032Z,3.64
2023-03-29T06:11:13.532Z,3.87
2023-03-29T06:13:42.291Z,4.03
2023-03-29T06:16:11.590Z,4.10
2023-03-29T06:18:40.358Z,4.20
2023-03-29T06:21:09.398Z,4.36
2023-03-29T06:23:37.195Z,4.35
2023-03-29T06:26:05.933Z,4.46
2023-03-29T06:28:33.390Z,4.53
2023-03-29T06:31:03.282Z,4.62
2023-03-29T06:33:32.387Z,4.73
2023-03-29T06:38:41.699Z,4.84
2023-03-29T06:41:11.361Z,4.93
2023-03-29T06:43:38.948Z,5.05
2023-03-29T06:46:12.044Z,5.13
2023-03-29T06:48:41.021Z,5.17
2023-03-29T06:51:08.720Z,5.20
2023-03-29T06:53:36.727Z,5.29
2023-03-29T06:56:09.353Z,5.28
2023-03-29T06:58:37.227Z,5.36
2023-03-29T07:01:05.192Z,5.43
2023-03-29T07:03:35.055Z,5.41
2023-03-29T07:06:09.761Z,5.50
2023-03-29T07:08:43.519Z,5.58
2023-03-29T07:11:15.142Z,5.71
2023-03-29T07:13:43.768Z,5.82
2023-03-29T07:16:14.212Z,5.89
2023-03-29T07:18:44.764Z,6.05
2023-03-29T07:21:13.440Z,6.17
2023-03-29T07:23:41.096Z,6.35
2023-03-29T07:26:08.788Z,6.53
2023-03-29T07:28:37.634Z,6.66
2023-03-29T07:31:11.202Z,6.68
2023-03-29T07:33:39.357Z,6.79
2023-03-29T07:36:07.203Z,6.92
2023-03-29T07:38:34.913Z,7.07
2023-03-29T07:41:06.024Z,7.16
2023-03-29T07:43:34.240Z,7.32
2023-03-29T07:46:04.878Z,7.41
2023-03-29T07:48:32.976Z,7.62
2023-03-29T07:51:01.229Z,7.71
2023-03-29T07:53:29.832Z,7.84
2023-03-29T07:55:58.115Z,7.88
2023-03-29T07:58:25.474Z,8.00
2023-03-29T08:00:53.195Z,8.10
2023-03-29T08:03:20.886Z,8.17
2023-03-29T08:05:48.629Z,8.37
2023-03-29T08:08:16.126Z,8.42
2023-03-29T08:10:45.238Z,8.46
2023-03-29T08:13:12.712Z,8.57
2023-03-29T08:15:42.317Z,8.56
2023-03-29T08:18:09.724Z,8.73
2023-03-29T08:20:37.313Z,8.87
2023-03-29T08:23:04.792Z,9.03
2023-03-29T08:25:31.984Z,9.09
2023-03-29T08:27:59.368Z,9.19
2023-03-29T08:30:27.119Z,9.37
2023-03-29T08:32:55.411Z,9.39
2023-03-29T08:35:23.189Z,9.61
2023-03-29T08:37:50.268Z,9.57
2023-03-29T08:40:22.926Z,9.63
2023-03-29T08:42:50.375Z,9.88
2023-03-29T08:45:40.805Z,9.91
2023-03-29T08:48:35.109Z,9.93
2023-03-29T08:51:16.801Z,10.22
2023-03-29T08:54:12.649Z,10.31
2023-03-29T08:56:43.383Z,10.42
2023-03-29T08:59:26.613Z,10.49
2023-03-29T09:01:58.046Z,10.53
2023-03-29T09:04:32.002Z,10.89
2023-03-29T09:06:59.656Z,10.89
2023-03-29T09:09:33.188Z,11.07
2023-03-29T09:12:27.184Z,11.43
2023-03-29T09:15:09.646Z,11.50
2023-03-29T09:17:53.318Z,11.60
2023-03-29T09:20:42.310Z,11.99
2023-03-29T09:23:36.046Z,12.12
2023-03-29T09:26:28.515Z,12.00
2023-03-29T09:29:30.316Z,12.24
2023-03-29T09:31:57.790Z,12.37
2023-03-29T09:34:40.043Z,12.63
2023-03-29T09:37:21.889Z,12.37
2023-03-29T09:39:53.293Z,12.49
2023-03-29T09:42:21.033Z,12.66
2023-03-29T09:44:53.691Z,12.84
2023-03-29T09:47:40.764Z,12.81
2023-03-29T09:50:39.713Z,12.88
2023-03-29T09:53:08.803Z,12.96
2023-03-29T09:55:37.475Z,13.01
2023-03-29T09:58:27.589Z,12.98
2023-03-29T10:00:59.664Z,12.79
2023-03-29T10:03:31.084Z,12.85
2023-03-29T10:06:01.698Z,12.80
2023-03-29T10:08:39.293Z,12.80
2023-03-29T10:11:30.396Z,13.17
2023-03-29T10:14:17.015Z,13.13
2023-03-29T10:16:46.215Z,13.27
2023-03-29T10:19:36.776Z,13.52
2023-03-29T10:22:16.335Z,13.55
2023-03-29T10:24:50.183Z,13.89
2023-03-29T10:27:23.480Z,14.05
2023-03-29T10:29:51.782Z,14.27
2023-03-29T10:32:34.238Z,14.62
2023-03-29T10:35:17.264Z,14.62
2023-03-29T10:37:49.613Z,14.49
2023-03-29T10:40:44.080Z,14.63
2023-03-29T10:43:18.191Z,14.48
2023-03-29T10:45:50.330Z,14.35
2023-03-29T10:48:19.372Z,14.54
2023-03-29T10:50:53.302Z,14.88
2023-03-29T10:53:29.472Z,14.50
2023-03-29T10:56:32.098Z,15.22
2023-03-29T10:59:29.636Z,15.72
2023-03-29T11:02:15.236Z,15.52
2023-03-29T11:05:24.654Z,15.89
2023-03-29T11:08:17.778Z,15.61
2023-03-29T11:11:12.577Z,14.93
2023-03-29T11:14:23.262Z,15.54
2023-03-29T11:17:24.150Z,15.85
2023-03-29T11:20:05.818Z,15.62
2023-03-29T11:22:48.515Z,16.04
2023-03-29T11:25:33.497Z,16.05
2023-03-29T11:28:19.064Z,15.89
2023-03-29T11:30:56.254Z,16.50
2023-03-29T11:33:34.835Z,16.54
2023-03-29T11:36:17.717Z,16.64
2023-03-29T11:39:15.331Z,16.18
2023-03-29T11:41:47.491Z,16.62
2023-03-29T11:44:23.496Z,16.86
2023-03-29T11:47:04.875Z,16.53
2023-03-29T11:49:54.608Z,16.20
2023-03-29T11:52:50.791Z,16.14
2023-03-29T11:55:28.060Z,15.70
2023-03-29T11:58:02.622Z,16.01
2023-03-29T12:00:39.867Z,16.70
2023-03-29T12:03:46.895Z,16.56
2023-03-29T12:06:50.765Z,16.77
2023-03-29T12:09:37.720Z,16.76
2023-03-29T12:12:35.214Z,17.00
2023-03-29T12:15:07.193Z,16.69
2023-03-29T12:17:47.470Z,16.89
2023-03-29T12:20:23.452Z,16.99
2023-03-29T12:22:51.810Z,16.84
2023-03-29T12:25:32.039Z,16.98
2023-03-29T12:28:23.452Z,17.04
2023-03-29T12:31:25.115Z,17.52
2023-03-29T12:34:35.086Z,17.38
2023-03-29T12:37:20.859Z,16.99
2023-03-29T12:39:50.319Z,16.59
2023-03-29T12:42:21.295Z,17.00
2023-03-29T12:44:59.057Z,16.56
2023-03-29T12:47:33.796Z,16.60
2023-03-29T12:50:01.811Z,16.59
2023-03-29T12:52:36.417Z,16.70
2023-03-29T12:55:30.767Z,16.40
2023-03-29T12:58:05.978Z,16.53
2023-03-29T13:00:45.579Z,16.54
2023-03-29T13:03:27.224Z,16.32
2023-03-29T13:06:05.283Z,16.21
2023-03-29T13:08:44.461Z,16.19
2023-03-29T13:11:54.941Z,16.39
2023-03-29T13:14:29.983Z,16.56
2023-03-29T13:17:18.473Z,16.57
2023-03-29T13:20:10.890Z,16.63
2023-03-29T13:23:36.895Z,16.47
2023-03-29T13:26:52.794Z,16.39
2023-03-29T13:29:42.756Z,16.47
2023-03-29T13:32:46.533Z,16.36
2023-03-29T13:35:41.777Z,16.27
2023-03-29T13:38:23.174Z,16.82
2023-03-29T13:40:53.116Z,16.90
2023-03-29T13:43:22.238Z,17.00
2023-03-29T13:45:57.948Z,17.43
2023-03-29T13:48:49.051Z,17.53
2023-03-29T13:51:19.051Z,17.39
2023-03-29T13:54:16.151Z,17.19
2023-03-29T13:57:09.320Z,17.24
2023-03-29T14:00:16.192Z,16.81
2023-03-29T14:02:57.434Z,16.55
2023-03-29T14:05:49.484Z,16.72
2023-03-29T14:08:27.013Z,16.40
2023-03-29T14:10:55.355Z,16.30
2023-03-29T14:13:25.181Z,16.43
2023-03-29T14:15:58.755Z,16.48
2023-03-29T14:18:29.447Z,16.27
2023-03-29T14:20:56.788Z,16.44
2023-03-29T14:23:31.891Z,16.34
2023-03-29T14:26:19.775Z,16.12
2023-03-29T14:28:53.018Z,16.10
2023-03-29T14:31:31.021Z,16.09
2023-03-29T14:34:01.016Z,16.21
2023-03-29T14:36:30.117Z,16.12
2023-03-29T14:39:15.553Z,16.13
2023-03-29T14:41:52.031Z,16.16
2023-03-29T14:44:21.891Z,16.32
2023-03-29T14:46:49.313Z,16.17
2023-03-29T14:49:19.814Z,16.38
2023-03-29T14:51:48.186Z,16.65
2023-03-29T14:54:27.024Z,16.62
2023-03-29T14:56:54.824Z,16.73
2023-03-29T14:59:42.860Z,16.75
2023-03-29T15:02:33.591Z,16.96
2023-03-29T15:05:05.589Z,16.94
2023-03-29T15:07:37.203Z,17.20
2023-03-29T15:10:06.633Z,17.09
2023-03-29T15:12:34.472Z,16.92
2023-03-29T15:15:02.590Z,16.86
2023-03-29T15:17:50.401Z,17.09
2023-03-29T15:20:34.056Z,17.01
2023-03-29T15:23:19.603Z,16.98
2023-03-29T15:25:51.478Z,17.13
2023-03-29T15:28:33.894Z,17.14
2023-03-29T15:31:12.344Z,17.13
2023-03-29T15:33:41.861Z,16.94
2023-03-29T15:36:12.373Z,16.87
2023-03-29T15:38:44.485Z,17.12
2023-03-29T15:41:14.737Z,16.94
2023-03-29T15:43:42.842Z,16.65
2023-03-29T15:46:14.059Z,16.75
2023-03-29T15:48:42.161Z,16.81
2023-03-29T15:51:13.149Z,16.78
2023-03-29T15:53:42.159Z,16.52
2023-03-29T15:56:12.370Z,16.60
2023-03-29T15:58:39.853Z,16.73
2023-03-29T16:01:33.678Z,16.47
2023-03-29T16:04:19.818Z,16.42
2023-03-29T16:06:50.602Z,16.24
2023-03-29T16:09:18.178Z,16.11
2023-03-29T16:11:46.286Z,16.03
2023-03-29T16:14:24.479Z,15.97
2023-03-29T16:16:52.930Z,15.87
2023-03-29T16:19:20.658Z,15.84
2023-03-29T16:21:48.596Z,15.77
2023-03-29T16:24:28.452Z,15.59
2023-03-29T16:26:57.479Z,15.68
2023-03-29T16:29:25.698Z,15.58
2023-03-29T16:31:53.547Z,15.44
2023-03-29T16:34:22.796Z,15.41
2023-03-29T16:36:50.786Z,15.35
2023-03-29T16:39:18.431Z,15.28
2023-03-29T16:41:48.904Z,15.27
2023-03-29T16:44:21.040Z,15.20
2023-03-29T16:46:49.163Z,15.18
2023-03-29T16:49:19.638Z,15.07
2023-03-29T16:51:48.171Z,15.05
2023-03-29T16:54:17.433Z,15.07
2023-03-29T16:56:44.976Z,14.98
2023-03-29T16:59:12.568Z,14.91
2023-03-29T17:01:40.621Z,14.86
2023-03-29T17:04:08.549Z,14.88
2023-03-29T17:06:36.076Z,14.77
2023-03-29T17:09:05.049Z,14.76
2023-03-29T17:11:32.769Z,14.62
2023-03-29T17:14:00.412Z,14.52
2023-03-29T17:16:29.215Z,14.57
2023-03-29T17:19:00.527Z,14.50
2023-03-29T17:21:29.297Z,14.46
2023-03-29T17:23:56.757Z,14.32
2023-03-29T17:26:24.339Z,14.25
2023-03-29T17:28:51.705Z,14.25
2023-03-29T17:31:19.689Z,14.27
2023-03-29T17:33:47.590Z,14.12
2023-03-29T17:36:15.204Z,14.01
2023-03-29T17:38:43.079Z,13.99
2023-03-29T17:41:11.343Z,14.07
2023-03-29T17:43:39.131Z,13.98
2023-03-29T17:46:06.894Z,13.89
2023-03-29T17:48:34.396Z,13.75
2023-03-29T17:51:02.233Z,13.74
2023-03-29T17:53:33.239Z,13.70
2023-03-29T17:56:00.843Z,13.63
2023-03-29T17:58:28.754Z,13.66
2023-03-29T18:00:56.926Z,13.62
2023-03-29T18:03:24.522Z,13.61
2023-03-29T18:05:51.958Z,13.58
2023-03-29T18:08:19.419Z,13.49
2023-03-29T18:10:46.832Z,13.54
2023-03-29T18:13:14.936Z,13.61
2023-03-29T18:15:42.379Z,13.47
2023-03-29T18:18:09.937Z,13.42
2023-03-29T18:20:37.323Z,13.30
2023-03-29T18:23:04.702Z,13.36
2023-03-29T18:25:32.349Z,13.33
2023-03-29T18:28:00.945Z,13.22
2023-03-29T18:30:28.409Z,13.17
2023-03-29T18:32:55.966Z,13.25
2023-03-29T18:35:23.419Z,13.20
2023-03-29T18:37:52.398Z,13.19
2023-03-29T18:40:26.972Z,13.08
2023-03-29T18:42:54.820Z,12.91
2023-03-29T18:45:22.513Z,12.91
2023-03-29T18:47:50.834Z,12.81
2023-03-29T18:50:18.308Z,12.76
2023-03-29T18:52:45.857Z,12.70
2023-03-29T18:55:13.267Z,12.56
2023-03-29T18:57:40.967Z,12.63
2023-03-29T19:00:14.844Z,12.67
2023-03-29T19:02:42.619Z,12.71
2023-03-29T19:07:38.870Z,12.58
2023-03-29T19:10:08.514Z,12.57
2023-03-29T19:12:36.078Z,12.46
2023-03-29T19:15:03.587Z,12.45
2023-03-29T19:17:30.964Z,12.49
2023-03-29T19:19:58.421Z,12.49
2023-03-29T19:22:26.635Z,12.37
2023-03-29T19:24:54.017Z,12.30
2023-03-29T19:27:21.408Z,12.23
2023-03-29T19:29:49.193Z,12.24
2023-03-29T19:32:16.627Z,12.25
2023-03-29T19:34:43.979Z,12.22
2023-03-29T19:37:11.707Z,12.23
2023-03-29T19:39:41.075Z,12.17
2023-03-29T19:42:08.698Z,12.14
2023-03-29T19:44:38.382Z,12.16
2023-03-29T19:47:08.468Z,12.15
2023-03-29T19:49:38.657Z,12.10
2023-03-29T19:52:06.528Z,12.01
2023-03-29T19:54:33.872Z,11.99
2023-03-29T19:57:01.916Z,11.94
2023-03-29T19:59:31.134Z,12.03
2023-03-29T20:01:59.389Z,12.05
2023-03-29T20:04:28.899Z,11.95
2023-03-29T20:06:57.684Z,11.89
2023-03-29T20:09:25.082Z,11.93
2023-03-29T20:11:52.414Z,12.01
2023-03-29T20:14:19.903Z,11.93
2023-03-29T20:16:49.645Z,11.83
2023-03-29T20:19:17.937Z,11.77
2023-03-29T20:21:45.150Z,11.79
2023-03-29T20:24:12.606Z,11.78
2023-03-29T20:26:39.986Z,11.89
2023-03-29T20:29:07.406Z,11.94
2023-03-29T20:31:34.864Z,11.86
2023-03-29T20:34:02.329Z,11.84
2023-03-29T20:36:30.786Z,11.76
2023-03-29T20:38:59.427Z,11.92
2023-03-29T20:41:27.157Z,11.80
2023-03-29T20:44:00.031Z,11.87
2023-03-29T20:46:37.839Z,11.94
2023-03-29T20:49:07.439Z,11.92
2023-03-29T20:51:34.800Z,11.94
2023-03-29T20:54:05.188Z,11.83
2023-03-29T20:56:42.289Z,11.77
2023-03-29T20:59:10.922Z,11.79
2023-03-29T21:01:41.013Z,11.69
2023-03-29T21:04:09.254Z,11.68
2023-03-29T21:06:39.905Z,11.64
2023-03-29T21:09:07.402Z,11.62
2023-03-29T21:11:34.773Z,11.51
2023-03-29T21:14:02.692Z,11.52
2023-03-29T21:16:31.204Z,11.50
2023-03-29T21:18:58.752Z,11.48
2023-03-29T21:21:26.321Z,11.45
2023-03-29T21:23:53.699Z,11.43
2023-03-29T21:26:22.773Z,11.38
2023-03-29T21:28:50.433Z,11.36
2023-03-29T21:31:18.169Z,11.37
2023-03-29T21:33:45.782Z,11.31
2023-03-29T21:36:13.281Z,11.21
2023-03-29T21:38:40.885Z,11.18
2023-03-29T21:41:12.106Z,11.16
2023-03-29T21:43:39.972Z,11.18
2023-03-29T21:46:07.481Z,11.16
2023-03-29T21:48:34.494Z,11.14
2023-03-29T21:51:01.718Z,11.17
2023-03-29T21:53:29.159Z,11.12
2023-03-29T21:55:56.648Z,11.11
2023-03-29T21:58:24.173Z,11.19
2023-03-29T22:00:51.637Z,11.17
2023-03-29T22:03:19.309Z,11.11
2023-03-29T22:06:00.727Z,11.08
2023-03-29T22:08:28.687Z,11.04
2023-03-29T22:10:57.130Z,11.08
2023-03-29T22:13:26.983Z,11.12
2023-03-29T22:16:03.758Z,11.15
2023-03-29T22:18:46.957Z,11.28
2023-03-29T22:21:22.739Z,11.44
2023-03-29T22:23:53.931Z,11.37
2023-03-29T22:26:27.671Z,11.52
2023-03-29T22:28:55.713Z,11.59
2023-03-29T22:31:25.083Z,11.65
2023-03-29T22:33:52.771Z,11.73
2023-03-29T22:36:31.329Z,11.88
2023-03-29T22:38:59.371Z,12.07
2023-03-29T22:41:28.157Z,12.07
2023-03-29T22:43:58.205Z,12.19
2023-03-29T22:46:26.448Z,12.36
2023-03-29T22:48:53.875Z,12.63
2023-03-29T22:51:21.785Z,12.57
2023-03-29T22:53:49.548Z,12.70
2023-03-29T22:56:17.804Z,12.75
2023-03-29T22:58:45.916Z,12.92
2023-03-29T23:01:13.729Z,12.85
2023-03-29T23:03:41.818Z,12.79
2023-03-29T23:06:09.531Z,12.90
2023-03-29T23:08:37.241Z,12.96
2023-03-29T23:11:05.505Z,13.14
2023-03-29T23:13:33.719Z,12.98
2023-03-29T23:16:03.596Z,12.81
2023-03-29T23:18:34.685Z,13.13
2023-03-29T23:21:05.087Z,13.19
2023-03-29T23:23:32.857Z,13.39
2023-03-29T23:26:00.700Z,13.37
2023-03-29T23:28:30.647Z,13.45
2023-03-29T23:31:09.888Z,13.83
2023-03-29T23:33:41.136Z,13.84
2023-03-29T23:36:12.690Z,13.88
2023-03-29T23:38:42.152Z,13.99
2023-03-29T23:41:12.734Z,14.95
2023-03-29T23:43:43.113Z,14.10
2023-03-29T23:46:16.387Z,13.76
2023-03-29T23:48:49.264Z,13.73
2023-03-29T23:51:23.073Z,14.28
2023-03-29T23:53:51.207Z,14.27
2023-03-29T23:56:18.672Z,14.38
2023-03-29T23:58:46.124Z,14.40
